Time;durP1;ratioP1;P1;durP2;ratioP2;P2;SDS_P1;SDS_P2;PMS_P1;PMS_P2;Temp;Humidity;BMP_temperature;BMP_pressure;BME280_temperature;BME280_humidity;BME280_pressure;Samples;Min_cycle;Max_cycle;Signal;HPM_P1;HPM_P2
2023/12/19 00:00:15;;;;;;;5.60;3.63;;;3.30;99.90;;;;;;5137599;27;20511;-59
2023/12/19 00:02:42;;;;;;;5.85;3.20;;;3.30;99.90;;;;;;5137471;27;20458;-59
2023/12/19 00:05:09;;;;;;;4.50;3.40;;;3.20;94.50;;;;;;5137510;27;20418;-58
2023/12/19 00:07:40;;;;;;;6.05;3.40;;;3.00;96.60;;;;;;5138003;27;20413;-59
2023/12/19 00:10:08;;;;;;;6.07;3.77;;;3.00;99.90;;;;;;5136829;27;20434;-58
2023/12/19 00:12:37;;;;;;;6.18;3.00;;;3.10;99.90;;;;;;5133824;27;20550;-58
2023/12/19 00:15:04;;;;;;;4.22;2.28;;;3.20;99.90;;;;;;5115931;28;20515;-58
2023/12/19 00:17:31;;;;;;;3.42;2.40;;;3.20;99.90;;;;;;5116058;28;20765;-59
2023/12/19 00:19:58;;;;;;;7.75;3.72;;;3.30;99.90;;;;;;5116652;28;20401;-59
2023/12/19 00:22:26;;;;;;;7.25;4.72;;;3.30;99.90;;;;;;5118998;27;20830;-59
2023/12/19 00:24:54;;;;;;;6.65;3.83;;;3.30;99.90;;;;;;5118734;27;20511;-59
2023/12/19 00:27:21;;;;;;;5.10;3.70;;;3.20;99.90;;;;;;5133309;27;20887;-58
2023/12/19 00:29:48;;;;;;;3.25;2.33;;;3.20;99.90;;;;;;5128033;27;20425;-59
2023/12/19 00:32:15;;;;;;;4.33;2.40;;;3.30;99.90;;;;;;5119647;27;20536;-59
2023/12/19 00:34:42;;;;;;;5.28;2.83;;;3.30;98.70;;;;;;5117399;28;20419;-59
2023/12/19 00:37:09;;;;;;;3.38;2.50;;;3.30;84.30;;;;;;5117596;27;20412;-59
2023/12/19 00:39:38;;;;;;;4.90;2.90;;;3.10;84.00;;;;;;5122056;27;20426;-59
2023/12/19 00:42:06;;;;;;;3.60;2.28;;;3.10;85.20;;;;;;5137136;27;20422;-58
2023/12/19 00:44:36;;;;;;;3.20;1.83;;;3.00;85.30;;;;;;5138023;27;20462;-59
2023/12/19 00:47:03;;;;;;;5.20;2.90;;;2.90;92.10;;;;;;5137576;27;20829;-58
2023/12/19 00:49:30;;;;;;;3.17;2.38;;;2.90;94.40;;;;;;5137787;27;20421;-59
2023/12/19 00:51:57;;;;;;;4.53;2.50;;;2.90;99.90;;;;;;5128544;27;20481;-58
2023/12/19 00:54:24;;;;;;;5.90;2.87;;;3.00;99.90;;;;;;5129790;27;20541;-59
2023/12/19 00:56:51;;;;;;;4.13;3.27;;;3.00;99.90;;;;;;5137686;27;20426;-59
2023/12/19 00:59:20;;;;;;;5.70;3.00;;;3.00;99.90;;;;;;5136697;27;20790;-59
2023/12/19 01:01:48;;;;;;;4.43;3.10;;;3.00;99.90;;;;;;5120600;27;20885;-59
2023/12/19 01:04:16;;;;;;;4.88;2.88;;;3.10;99.90;;;;;;5117344;28;20424;-58
2023/12/19 01:06:43;;;;;;;7.10;3.20;;;3.10;99.90;;;;;;5126425;27;20952;-59
2023/12/19 01:09:10;;;;;;;5.27;3.10;;;3.10;99.90;;;;;;5135362;27;20853;-58
2023/12/19 01:11:37;;;;;;;6.40;3.20;;;3.10;99.90;;;;;;5132640;27;20538;-57
2023/12/19 01:14:04;;;;;;;4.50;2.85;;;3.00;98.90;;;;;;5134913;27;20434;-58
2023/12/19 01:16:33;;;;;;;6.38;3.28;;;3.00;99.30;;;;;;5135692;27;20434;-59
2023/12/19 01:19:00;;;;;;;5.40;3.15;;;2.90;99.90;;;;;;5135795;27;20430;-59
2023/12/19 01:21:27;;;;;;;5.80;3.20;;;2.90;99.90;;;;;;5135984;27;20430;-58
2023/12/19 01:23:54;;;;;;;4.22;2.33;;;3.00;99.90;;;;;;5135705;27;20437;-59
2023/12/19 01:26:21;;;;;;;2.90;1.95;;;3.00;99.90;;;;;;5135403;27;20437;-58
2023/12/19 01:28:48;;;;;;;3.40;1.63;;;3.10;99.90;;;;;;5135059;27;20487;-59
2023/12/19 01:31:17;;;;;;;3.25;1.73;;;3.20;98.50;;;;;;5133961;27;20430;-59
2023/12/19 01:33:45;;;;;;;3.00;1.80;;;3.20;85.60;;;;;;5136146;27;20887;-58
2023/12/19 01:36:12;;;;;;;4.80;2.50;;;3.10;74.40;;;;;;5136824;27;20426;-59
2023/12/19 01:38:39;;;;;;;6.10;3.60;;;3.10;76.60;;;;;;5133441;27;20438;-59
2023/12/19 01:41:06;;;;;;;5.05;3.03;;;3.00;58.00;;;;;;5136073;27;20426;-59
2023/12/19 01:43:33;;;;;;;6.38;3.40;;;2.90;67.30;;;;;;5133323;27;20436;-59
2023/12/19 01:46:00;;;;;;;5.30;3.70;;;2.80;91.90;;;;;;5135643;27;20434;-59
2023/12/19 01:48:27;;;;;;;5.85;3.83;;;2.90;97.70;;;;;;5133620;27;20861;-58
2023/12/19 01:50:56;;;;;;;6.38;3.60;;;2.90;91.60;;;;;;5131566;27;20803;-59
2023/12/19 01:53:24;;;;;;;8.48;4.35;;;2.90;93.10;;;;;;5132674;27;20437;-59
2023/12/19 01:55:53;;;;;;;7.40;4.03;;;2.90;96.50;;;;;;5132544;27;20436;-58
2023/12/19 01:58:21;;;;;;;5.82;4.38;;;2.90;90.80;;;;;;5132840;27;20694;-59
2023/12/19 02:00:51;;;;;;;9.80;4.80;;;2.80;76.80;;;;;;5134469;27;20706;-59
2023/12/19 02:03:18;;;;;;;7.35;4.07;;;2.70;79.00;;;;;;5132892;27;20444;-58
2023/12/19 02:05:48;;;;;;;4.90;3.58;;;2.60;74.20;;;;;;5133395;27;20865;-59
2023/12/19 02:08:16;;;;;;;5.57;3.20;;;2.40;82.60;;;;;;5136137;27;20411;-59
2023/12/19 02:10:44;;;;;;;4.63;3.90;;;2.30;92.70;;;;;;5133313;27;20433;-59
2023/12/19 02:13:11;;;;;;;3.80;3.03;;;2.30;94.20;;;;;;5132998;27;20445;-58
2023/12/19 02:15:38;;;;;;;4.93;3.53;;;2.20;99.90;;;;;;5133645;27;20415;-59
2023/12/19 02:18:14;;;;;;;5.78;3.95;;;2.30;99.90;;;;;;5121037;27;20435;-59
2023/12/19 02:20:41;;;;;;;5.70;3.88;;;2.40;99.90;;;;;;5114167;28;20416;-58
2023/12/19 02:23:10;;;;;;;8.45;3.88;;;2.40;99.90;;;;;;5134242;27;20414;-58
2023/12/19 02:25:37;;;;;;;5.17;4.27;;;2.40;99.90;;;;;;5135939;27;20434;-58
2023/12/19 02:28:05;;;;;;;6.20;3.30;;;2.50;99.90;;;;;;5136356;27;20419;-58
2023/12/19 02:30:32;;;;;;;4.30;2.55;;;2.60;99.90;;;;;;5130756;27;20424;-58
2023/12/19 02:32:59;;;;;;;4.07;2.78;;;2.60;99.90;;;;;;5135037;27;20422;-59
2023/12/19 02:35:26;;;;;;;6.20;2.70;;;2.60;96.80;;;;;;5133652;27;20433;-59
2023/12/19 02:37:53;;;;;;;5.03;2.20;;;2.60;93.60;;;;;;5134307;27;20785;-59
2023/12/19 02:40:21;;;;;;;4.93;2.20;;;2.50;82.20;;;;;;5113914;28;20427;-59
2023/12/19 02:42:48;;;;;;;4.80;1.90;;;2.30;72.10;;;;;;5114332;28;20477;-59
2023/12/19 02:45:16;;;;;;;4.70;1.90;;;2.30;81.50;;;;;;5132519;27;20414;-58
2023/12/19 02:47:43;;;;;;;4.60;2.20;;;2.20;88.30;;;;;;5135409;27;20414;-58
2023/12/19 02:50:10;;;;;;;3.60;1.60;;;2.20;92.60;;;;;;5134690;27;20414;-59
2023/12/19 02:52:38;;;;;;;3.67;1.77;;;2.20;85.10;;;;;;5135221;27;20422;-59
2023/12/19 02:55:06;;;;;;;3.58;2.00;;;2.10;88.20;;;;;;5133216;27;20423;-58
2023/12/19 02:57:34;;;;;;;3.28;1.98;;;2.10;92.80;;;;;;5129429;27;20470;-59
2023/12/19 03:00:02;;;;;;;3.05;1.90;;;2.10;92.70;;;;;;5133915;27;20466;-59
2023/12/19 03:02:28;;;;;;;4.30;2.33;;;2.10;96.10;;;;;;5133923;27;20430;-59
2023/12/19 03:04:56;;;;;;;3.42;2.10;;;2.30;99.90;;;;;;5134150;27;20486;-59
2023/12/19 03:07:23;;;;;;;3.30;1.87;;;2.40;99.90;;;;;;5136175;27;20518;-57
2023/12/19 03:09:49;;;;;;;3.78;2.20;;;2.40;99.90;;;;;;5135308;27;20833;-59
2023/12/19 03:12:16;;;;;;;3.85;2.38;;;2.50;99.90;;;;;;5135861;27;20483;-59
2023/12/19 03:14:45;;;;;;;4.90;2.20;;;2.60;99.90;;;;;;5134018;27;20479;-59
2023/12/19 03:17:12;;;;;;;4.40;1.90;;;2.50;97.20;;;;;;5133908;27;20430;-59
2023/12/19 03:19:39;;;;;;;3.05;2.10;;;2.50;97.50;;;;;;5132676;27;20437;-59
2023/12/19 03:22:06;;;;;;;3.83;1.80;;;2.60;95.30;;;;;;5132192;28;20521;-59
2023/12/19 03:24:33;;;;;;;4.07;1.80;;;2.50;79.60;;;;;;5134263;28;20813;-59
2023/12/19 03:27:00;;;;;;;5.00;2.58;;;2.50;85.20;;;;;;5131726;28;20438;-58
2023/12/19 03:29:28;;;;;;;3.83;2.13;;;2.50;92.80;;;;;;5143166;27;20435;-57
2023/12/19 03:31:56;;;;;;;4.10;2.40;;;2.50;93.00;;;;;;5136059;27;20738;-58
2023/12/19 03:34:23;;;;;;;2.60;1.60;;;2.50;87.30;;;;;;5135989;27;20438;-59
2023/12/19 03:36:50;;;;;;;3.80;1.63;;;2.50;78.30;;;;;;5138190;27;20545;-59
2023/12/19 03:39:17;;;;;;;3.63;2.00;;;2.50;65.20;;;;;;5138404;27;20845;-59
2023/12/19 03:41:44;;;;;;;5.00;2.10;;;2.40;76.50;;;;;;5135092;27;20430;-59
2023/12/19 03:44:11;;;;;;;2.70;1.40;;;2.40;92.00;;;;;;5137844;27;20865;-59
2023/12/19 03:46:38;;;;;;;3.90;1.80;;;2.40;93.40;;;;;;5139263;27;20475;-59
2023/12/19 03:49:07;;;;;;;4.57;1.65;;;2.40;95.70;;;;;;5136577;27;20499;-59
2023/12/19 03:51:34;;;;;;;3.78;1.98;;;2.40;72.60;;;;;;5137131;27;20502;-59
2023/12/19 03:54:01;;;;;;;2.83;1.70;;;2.30;63.30;;;;;;5137620;27;20421;-59
2023/12/19 03:56:28;;;;;;;3.30;1.90;;;2.20;64.60;;;;;;5136398;27;20434;-59
2023/12/19 03:58:55;;;;;;;2.60;1.60;;;2.10;87.60;;;;;;5137018;27;20487;-59
2023/12/19 04:01:24;;;;;;;4.50;1.60;;;2.20;98.80;;;;;;5135910;27;20434;-59
2023/12/19 04:03:51;;;;;;;3.30;1.90;;;2.20;99.90;;;;;;5135902;27;20496;-59
2023/12/19 04:06:20;;;;;;;3.03;1.40;;;2.30;99.90;;;;;;5137564;27;20506;-58
2023/12/19 04:08:46;;;;;;;3.08;1.58;;;2.30;90.80;;;;;;5138605;27;20490;-58
2023/12/19 04:11:15;;;;;;;3.00;1.40;;;2.30;91.40;;;;;;5133204;27;20428;-59
2023/12/19 04:13:42;;;;;;;2.33;1.40;;;2.30;92.80;;;;;;5134896;27;20475;-58
2023/12/19 04:16:09;;;;;;;3.30;1.52;;;2.30;78.00;;;;;;5139022;27;20425;-59
2023/12/19 04:18:36;;;;;;;3.10;1.20;;;2.20;68.30;;;;;;5126263;27;20467;-58
2023/12/19 04:21:06;;;;;;;3.35;1.65;;;2.10;88.50;;;;;;5122559;27;20423;-59
2023/12/19 04:23:35;;;;;;;2.20;1.20;;;2.20;91.70;;;;;;5138059;27;20422;-59
2023/12/19 04:26:02;;;;;;;1.70;1.10;;;2.20;91.20;;;;;;5125733;27;20424;-59
2023/12/19 04:28:29;;;;;;;3.03;1.55;;;2.30;95.60;;;;;;5125308;27;20473;-59
2023/12/19 04:30:56;;;;;;;2.80;1.40;;;2.40;96.70;;;;;;5138781;27;20414;-59
2023/12/19 04:33:23;;;;;;;2.10;1.10;;;2.40;91.60;;;;;;5137157;27;20429;-58
2023/12/19 04:35:50;;;;;;;2.87;1.10;;;2.40;76.30;;;;;;5137796;27;20418;-59
2023/12/19 04:38:17;;;;;;;2.00;1.10;;;2.40;71.00;;;;;;5137081;27;20487;-59
2023/12/19 04:40:45;;;;;;;2.40;1.20;;;2.40;52.80;;;;;;5132998;27;20787;-58
2023/12/19 04:43:12;;;;;;;3.58;1.00;;;2.30;43.40;;;;;;5136052;27;20507;-58
2023/12/19 04:45:39;;;;;;;1.67;1.08;;;2.30;63.00;;;;;;5135909;27;20434;-59
2023/12/19 04:48:07;;;;;;;2.50;1.20;;;2.40;64.10;;;;;;5138241;27;20484;-58
2023/12/19 04:50:34;;;;;;;2.20;1.10;;;2.40;57.80;;;;;;5138200;27;20483;-58
2023/12/19 04:53:01;;;;;;;2.40;1.30;;;2.40;57.20;;;;;;5117228;28;20432;-58
2023/12/19 04:55:28;;;;;;;2.40;1.10;;;2.40;57.20;;;;;;5131532;27;20422;-58
2023/12/19 04:57:56;;;;;;;2.97;1.10;;;2.40;55.50;;;;;;5137604;27;20422;-59
2023/12/19 05:00:23;;;;;;;1.75;1.10;;;2.40;58.10;;;;;;5137861;27;20722;-58
2023/12/19 05:02:53;;;;;;;2.42;1.20;;;2.40;56.30;;;;;;5133007;27;20773;-58
2023/12/19 05:05:20;;;;;;;2.60;1.40;;;2.40;53.30;;;;;;5118351;27;20886;-58
2023/12/19 05:07:47;;;;;;;2.20;1.30;;;2.40;60.30;;;;;;5134525;27;20791;-58
2023/12/19 05:10:14;;;;;;;2.20;1.20;;;2.50;58.60;;;;;;5136248;27;20438;-57
2023/12/19 05:12:41;;;;;;;2.30;1.50;;;2.50;54.00;;;;;;5133421;27;20484;-58
2023/12/19 05:15:10;;;;;;;3.80;1.30;;;2.50;56.00;;;;;;5135762;27;20445;-58
2023/12/19 05:17:37;;;;;;;2.40;1.35;;;2.50;56.40;;;;;;5135065;27;20438;-58
2023/12/19 05:20:05;;;;;;;2.10;1.10;;;2.50;54.90;;;;;;5136125;27;20430;-57
2023/12/19 05:22:32;;;;;;;2.90;1.10;;;2.50;47.70;;;;;;5136167;27;20426;-58
2023/12/19 05:24:59;;;;;;;2.90;1.20;;;2.40;39.00;;;;;;5133983;27;20811;-58
2023/12/19 05:27:26;;;;;;;1.70;1.00;;;2.40;53.00;;;;;;5135792;27;20929;-58
2023/12/19 05:29:53;;;;;;;2.30;1.20;;;2.50;55.40;;;;;;5133893;27;20857;-57
2023/12/19 05:32:21;;;;;;;2.78;1.10;;;2.40;52.00;;;;;;5135877;27;20433;-58
2023/12/19 05:34:48;;;;;;;5.00;1.40;;;2.40;47.10;;;;;;5135089;27;20456;-58
2023/12/19 05:37:16;;;;;;;2.70;1.15;;;2.30;49.70;;;;;;5131695;27;20503;-58
2023/12/19 05:39:43;;;;;;;2.22;1.20;;;2.30;41.40;;;;;;5135484;27;20724;-58
2023/12/19 05:42:10;;;;;;;5.15;1.13;;;2.10;44.30;;;;;;5136280;27;20453;-57
2023/12/19 05:44:37;;;;;;;2.60;1.50;;;2.20;72.00;;;;;;5135652;27;20434;-59
2023/12/19 05:47:04;;;;;;;1.70;1.20;;;2.20;71.10;;;;;;5133618;27;20430;-59
2023/12/19 05:49:33;;;;;;;2.38;1.20;;;2.20;63.50;;;;;;5132538;27;20434;-57
2023/12/19 05:52:01;;;;;;;3.10;1.20;;;2.10;57.40;;;;;;5132330;27;20487;-57
2023/12/19 05:54:28;;;;;;;2.97;1.20;;;2.00;60.00;;;;;;5133496;27;20961;-58
2023/12/19 05:56:55;;;;;;;2.15;1.10;;;2.00;54.90;;;;;;5133017;27;20904;-58
2023/12/19 05:59:22;;;;;;;2.10;1.10;;;2.00;72.60;;;;;;5133272;27;20749;-58
2023/12/19 06:01:49;;;;;;;2.67;1.50;;;2.60;99.90;;;;;;5135312;27;20921;-58
2023/12/19 06:04:16;;;;;;;2.30;1.10;;;2.80;99.90;;;;;;5133384;27;20445;-58
2023/12/19 06:06:44;;;;;;;2.88;1.10;;;3.00;94.30;;;;;;5131557;27;20442;-57
2023/12/19 06:09:12;;;;;;;2.60;1.00;;;2.90;59.80;;;;;;5135953;27;20433;-58
2023/12/19 06:11:40;;;;;;;1.83;0.90;;;2.90;28.30;;;;;;5135510;27;20426;-58
2023/12/19 06:14:07;;;;;;;1.90;1.00;;;2.60;3.60;;;;;;5133071;27;21098;-57
2023/12/19 06:16:34;;;;;;;2.13;1.20;;;2.40;16.70;;;;;;5132429;27;20944;-58
2023/12/19 06:19:01;;;;;;;2.25;1.10;;;2.40;32.20;;;;;;5133412;27;20857;-59
2023/12/19 06:21:29;;;;;;;2.60;1.10;;;2.40;48.70;;;;;;5130133;27;20493;-59
2023/12/19 06:23:57;;;;;;;1.70;1.10;;;2.50;72.30;;;;;;5131609;27;20722;-59
2023/12/19 06:26:24;;;;;;;3.03;1.20;;;2.90;55.30;;;;;;5128947;27;20492;-59
2023/12/19 06:28:51;;;;;;;2.60;1.50;;;2.80;44.70;;;;;;5133988;27;20434;-58
2023/12/19 06:31:19;;;;;;;3.92;1.30;;;2.80;32.90;;;;;;5128361;27;20773;-59
2023/12/19 06:33:46;;;;;;;3.40;1.20;;;2.60;20.40;;;;;;5151300;27;20885;-58
2023/12/19 06:36:28;;;;;;;3.80;1.60;;;2.50;27.50;;;;;;5133349;27;21096;-59
2023/12/19 06:38:57;;;;;;;2.30;1.10;;;2.50;28.60;;;;;;5134450;27;20876;-59
2023/12/19 06:41:24;;;;;;;2.45;1.40;;;2.40;30.60;;;;;;5133907;27;20487;-59
2023/12/19 06:43:51;;;;;;;2.35;1.30;;;2.40;35.40;;;;;;5133948;27;20422;-59
2023/12/19 06:46:40;;;;;;;2.10;1.10;;;2.30;36.00;;;;;;5131085;27;20429;-58
2023/12/19 06:49:07;;;;;;;2.00;1.00;;;2.30;23.20;;;;;;5135643;27;20455;-57
2023/12/19 06:51:34;;;;;;;1.80;1.00;;;2.20;24.40;;;;;;5134406;27;20422;-57
2023/12/19 06:54:02;;;;;;;3.10;1.15;;;2.20;19.40;;;;;;5134665;27;20440;-58
2023/12/19 06:56:29;;;;;;;2.40;1.00;;;2.20;20.30;;;;;;5134171;27;20429;-59
2023/12/19 06:58:56;;;;;;;2.92;1.40;;;2.20;20.90;;;;;;5134218;27;20751;-57
2023/12/19 07:01:25;;;;;;;2.30;1.20;;;2.40;26.00;;;;;;5134584;27;20943;-57
2023/12/19 07:03:52;;;;;;;3.38;1.30;;;2.40;14.70;;;;;;5134536;27;20461;-56
2023/12/19 07:06:19;;;;;;;4.00;1.50;;;2.50;13.60;;;;;;5133335;27;20415;-56
2023/12/19 07:08:46;;;;;;;2.30;1.00;;;2.50;13.00;;;;;;5131731;27;20454;-56
2023/12/19 07:11:15;;;;;;;3.17;1.30;;;2.40;4.20;;;;;;5133027;27;20418;-56
2023/12/19 07:13:42;;;;;;;3.92;1.50;;;2.40;8.20;;;;;;5133496;27;20548;-56
2023/12/19 07:16:13;;;;;;;1.95;1.33;;;2.30;1.40;;;;;;5132825;27;20706;-56
2023/12/19 07:18:43;;;;;;;2.20;1.30;;;2.20;4.70;;;;;;5129687;27;20414;-55
2023/12/19 07:21:19;;;;;;;2.90;1.70;;;2.10;7.20;;;;;;5129314;28;20905;-55
2023/12/19 07:23:46;;;;;;;3.38;1.40;;;1.90;18.80;;;;;;5130614;28;20422;-53
2023/12/19 07:26:26;;;;;;;3.72;1.60;;;1.90;23.30;;;;;;5132107;28;20479;-56
2023/12/19 07:28:54;;;;;;;4.13;1.90;;;2.00;40.20;;;;;;5131890;28;20422;-54
2023/12/19 07:31:23;;;;;;;4.03;1.63;;;2.00;31.20;;;;;;5131689;28;20418;-54
2023/12/19 07:33:51;;;;;;;4.23;1.70;;;2.00;31.30;;;;;;5132491;28;20430;-57
2023/12/19 07:36:18;;;;;;;4.13;1.70;;;2.10;48.90;;;;;;5133688;28;20509;-58
2023/12/19 07:38:45;;;;;;;3.77;1.60;;;2.20;52.20;;;;;;5133140;28;20763;-54
2023/12/19 07:41:12;;;;;;;3.93;1.53;;;2.40;35.20;;;;;;5134290;28;20776;-53
2023/12/19 07:43:41;;;;;;;4.07;1.90;;;2.40;30.50;;;;;;5131947;28;20796;-55
2023/12/19 07:46:08;;;;;;;2.70;1.73;;;2.40;22.00;;;;;;5131140;28;21004;-57
2023/12/19 07:48:35;;;;;;;6.30;1.70;;;2.30;25.90;;;;;;5130891;28;20418;-53
2023/12/19 07:51:03;;;;;;;3.30;1.50;;;2.40;34.00;;;;;;5131391;28;20421;-54
2023/12/19 07:53:30;;;;;;;2.70;1.70;;;2.50;36.30;;;;;;5132917;28;20422;-56
2023/12/19 07:56:03;;;;;;;2.88;1.77;;;2.70;33.90;;;;;;5132411;28;20450;-53
2023/12/19 07:58:30;;;;;;;3.28;1.70;;;2.70;22.50;;;;;;5130682;28;20590;-56
2023/12/19 08:00:59;;;;;;;3.45;1.80;;;2.70;1.10;;;;;;5130828;28;20506;-56
2023/12/19 08:03:26;;;;;;;4.20;2.60;;;2.50;9.60;;;;;;5132898;28;20410;-55
2023/12/19 08:05:55;;;;;;;3.75;2.00;;;2.60;36.10;;;;;;5130554;28;20430;-50
2023/12/19 08:08:23;;;;;;;4.40;1.90;;;2.60;34.20;;;;;;5130503;28;20575;-52
2023/12/19 08:10:50;;;;;;;2.40;1.65;;;2.40;31.40;;;;;;5133073;28;20418;-55
2023/12/19 08:13:19;;;;;;;4.40;2.08;;;2.40;43.00;;;;;;5133274;28;20449;-56
2023/12/19 08:15:47;;;;;;;4.28;2.03;;;2.50;49.90;;;;;;5131980;28;20725;-56
2023/12/19 08:18:15;;;;;;;3.90;1.83;;;2.30;37.00;;;;;;5132768;27;20410;-51
2023/12/19 08:20:43;;;;;;;4.25;2.55;;;2.30;46.00;;;;;;5136705;27;20733;-54
2023/12/19 08:23:10;;;;;;;4.15;2.00;;;2.10;52.30;;;;;;5137619;27;20464;-60
2023/12/19 08:25:38;;;;;;;4.47;2.47;;;2.00;61.30;;;;;;5135669;27;20826;-58
2023/12/19 08:28:05;;;;;;;4.70;2.42;;;2.00;61.90;;;;;;5132418;27;21032;-53
2023/12/19 08:30:33;;;;;;;5.35;3.25;;;2.10;85.10;;;;;;5136770;27;20675;-55
2023/12/19 08:33:01;;;;;;;4.30;3.10;;;2.00;70.00;;;;;;5135746;27;20430;-55
2023/12/19 08:35:30;;;;;;;6.03;2.80;;;2.10;81.10;;;;;;5136498;27;20422;-55
2023/12/19 08:37:57;;;;;;;3.53;2.50;;;2.20;84.10;;;;;;5136668;27;20929;-54
2023/12/19 08:40:24;;;;;;;5.43;3.03;;;2.30;82.00;;;;;;5136361;27;20422;-52
2023/12/19 08:42:53;;;;;;;4.78;2.00;;;2.40;55.10;;;;;;5136068;27;20422;-53
2023/12/19 08:45:22;;;;;;;6.90;3.30;;;2.40;46.40;;;;;;5136535;27;20415;-56
2023/12/19 08:47:50;;;;;;;4.10;3.22;;;2.40;51.10;;;;;;5135248;27;20411;-54
2023/12/19 08:50:17;;;;;;;5.32;3.20;;;2.50;53.90;;;;;;5115811;28;20420;-55
2023/12/19 08:52:47;;;;;;;6.30;3.20;;;2.40;37.70;;;;;;5116237;28;20522;-56
2023/12/19 08:55:14;;;;;;;4.40;2.80;;;2.20;37.20;;;;;;5115560;28;21049;-55
2023/12/19 08:57:42;;;;;;;4.72;2.80;;;2.30;54.70;;;;;;5121408;27;20430;-54
2023/12/19 09:00:12;;;;;;;5.97;3.70;;;2.20;42.00;;;;;;5135673;27;20926;-54
2023/12/19 09:02:42;;;;;;;3.88;3.25;;;2.00;51.50;;;;;;5136036;27;20867;-55
2023/12/19 09:05:10;;;;;;;6.13;4.15;;;2.00;66.00;;;;;;5136006;27;20426;-55
2023/12/19 09:07:37;;;;;;;7.68;4.30;;;2.10;63.70;;;;;;5136572;27;20514;-56
2023/12/19 09:10:07;;;;;;;7.80;4.50;;;2.10;61.20;;;;;;5135824;27;20513;-53
2023/12/19 09:12:34;;;;;;;6.90;4.20;;;2.20;75.70;;;;;;5134588;27;20418;-55
2023/12/19 09:15:02;;;;;;;8.20;4.17;;;2.20;55.40;;;;;;5135962;27;20419;-56
2023/12/19 09:17:29;;;;;;;5.73;3.60;;;2.30;56.90;;;;;;5136312;27;20418;-55
2023/12/19 09:19:56;;;;;;;7.25;3.20;;;2.30;46.40;;;;;;5133916;27;20964;-56
2023/12/19 09:22:23;;;;;;;5.93;3.42;;;2.40;58.90;;;;;;5135207;27;20430;-56
2023/12/19 09:24:50;;;;;;;5.90;3.17;;;2.70;54.50;;;;;;5133291;27;20419;-52
2023/12/19 09:27:19;;;;;;;6.93;3.50;;;2.70;27.50;;;;;;5134308;27;20414;-53
2023/12/19 09:29:46;;;;;;;6.07;3.90;;;2.80;37.70;;;;;;5133669;27;20410;-54
2023/12/19 09:32:15;;;;;;;5.88;3.03;;;3.00;31.80;;;;;;5135506;27;20422;-53
2023/12/19 09:34:42;;;;;;;7.50;3.72;;;3.00;18.50;;;;;;5135186;27;20779;-54
2023/12/19 09:37:09;;;;;;;5.55;3.67;;;3.00;13.80;;;;;;5134587;27;20423;-52
2023/12/19 09:39:36;;;;;;;7.07;3.30;;;3.00;22.00;;;;;;5133993;27;20423;-50
2023/12/19 09:42:03;;;;;;;6.65;3.67;;;3.10;18.20;;;;;;5134998;27;20763;-52
2023/12/19 09:44:32;;;;;;;7.43;3.83;;;3.10;13.30;;;;;;5133906;27;20505;-55
2023/12/19 09:46:59;;;;;;;5.30;3.90;;;3.00;7.50;;;;;;5134923;27;20427;-50
2023/12/19 09:49:28;;;;;;;6.47;4.07;;;3.10;10.40;;;;;;5131472;27;20486;-52
2023/12/19 09:51:56;;;;;;;5.65;3.17;;;3.10;1.00;;;;;;5133800;27;20514;-52
2023/12/19 09:54:24;;;;;;;6.25;3.90;;;3.00;1.00;;;;;;5133197;27;20433;-51
2023/12/19 09:56:53;;;;;;;8.00;3.80;;;3.00;8.80;;;;;;5132133;27;20411;-51
2023/12/19 09:59:20;;;;;;;5.32;3.30;;;3.00;10.60;;;;;;5132930;27;20422;-49
2023/12/19 10:01:49;;;;;;;9.80;5.07;;;3.10;13.70;;;;;;5132236;27;20435;-51
2023/12/19 10:04:17;;;;;;;6.75;3.30;;;3.20;18.60;;;;;;5134085;27;20822;-52
2023/12/19 10:06:55;;;;;;;7.82;4.13;;;3.30;11.90;;;;;;5133715;27;20763;-49
2023/12/19 10:09:22;;;;;;;5.72;4.13;;;3.40;12.90;;;;;;5134594;27;20450;-50
2023/12/19 10:12:04;;;;;;;5.47;3.60;;;3.60;1.00;;;;;;5133888;27;20483;-48
2023/12/19 10:14:32;;;;;;;5.10;2.90;;;3.70;1.00;;;;;;5134357;27;20521;-48
2023/12/19 10:17:04;;;;;;;4.25;2.92;;;3.60;1.00;;;;;;5134534;27;20534;-51
2023/12/19 10:19:33;;;;;;;7.40;3.50;;;3.70;1.00;;;;;;5134780;27;20428;-50
2023/12/19 10:22:10;;;;;;;6.60;3.10;;;3.70;1.00;;;;;;5133891;27;20462;-51
2023/12/19 10:24:38;;;;;;;5.33;2.90;;;3.70;1.00;;;;;;5135149;27;20422;-50
2023/12/19 10:27:06;;;;;;;5.87;3.10;;;3.70;1.00;;;;;;5134640;27;20419;-53
2023/12/19 10:29:37;;;;;;;4.68;2.92;;;3.50;1.00;;;;;;5133612;27;20544;-52
2023/12/19 10:32:16;;;;;;;5.53;3.17;;;3.50;1.00;;;;;;5132559;27;20423;-52
2023/12/19 10:34:44;;;;;;;5.90;3.70;;;3.40;1.00;;;;;;5133918;27;20431;-61
2023/12/19 10:37:12;;;;;;;6.53;3.63;;;3.40;1.00;;;;;;5132065;27;20419;-61
2023/12/19 10:39:41;;;;;;;4.80;3.35;;;3.40;7.60;;;;;;5133387;27;20902;-61
2023/12/19 10:42:09;;;;;;;6.60;4.20;;;3.40;5.10;;;;;;5133537;27;20789;-61
2023/12/19 10:44:38;;;;;;;7.82;3.45;;;3.50;8.80;;;;;;5132561;27;20471;-61
2023/12/19 10:47:07;;;;;;;5.75;3.80;;;3.40;7.60;;;;;;5132849;27;20943;-61
2023/12/19 10:49:37;;;;;;;6.38;3.20;;;3.30;10.90;;;;;;5131648;27;20553;-61
2023/12/19 10:52:06;;;;;;;5.83;2.60;;;3.40;16.40;;;;;;5134139;27;20900;-60
2023/12/19 10:54:36;;;;;;;5.40;2.47;;;3.50;11.80;;;;;;5132651;27;20426;-60
2023/12/19 10:57:07;;;;;;;5.95;3.85;;;3.50;1.00;;;;;;5132917;27;20501;-60
2023/12/19 10:59:45;;;;;;;5.95;3.38;;;3.50;1.00;;;;;;5133682;27;20468;-60
2023/12/19 11:02:21;;;;;;;5.30;3.95;;;3.20;1.00;;;;;;5131389;27;20422;-60
2023/12/19 11:04:53;;;;;;;7.90;3.78;;;3.10;3.00;;;;;;5130496;27;20449;-60
2023/12/19 11:07:22;;;;;;;6.22;3.72;;;3.20;14.70;;;;;;5132366;27;20760;-60
2023/12/19 11:09:56;;;;;;;7.30;4.57;;;3.20;16.20;;;;;;5132252;27;20495;-61
2023/12/19 11:12:24;;;;;;;7.65;4.15;;;3.30;13.80;;;;;;5132618;27;20863;-61
2023/12/19 11:14:51;;;;;;;6.60;3.45;;;3.30;8.30;;;;;;5132037;27;20425;-59
2023/12/19 11:17:25;;;;;;;5.47;3.97;;;3.40;14.00;;;;;;5132119;27;20426;-59
2023/12/19 11:19:58;;;;;;;6.63;3.88;;;3.70;10.70;;;;;;5130848;27;20422;-60
2023/12/19 11:22:38;;;;;;;9.75;4.00;;;3.80;1.00;;;;;;5132564;27;20737;-61
2023/12/19 11:25:13;;;;;;;5.40;3.20;;;4.00;1.00;;;;;;5133907;28;20429;-61
2023/12/19 11:27:47;;;;;;;7.53;5.00;;;4.10;1.00;;;;;;5133187;28;20421;-61
2023/12/19 11:30:36;;;;;;;7.50;4.63;;;4.10;1.00;;;;;;5133440;28;20410;-60
2023/12/19 11:33:05;;;;;;;7.78;4.60;;;3.90;1.00;;;;;;5132354;28;20471;-61
2023/12/19 11:35:33;;;;;;;7.95;4.80;;;3.70;1.00;;;;;;5132385;28;20414;-62
2023/12/19 11:38:21;;;;;;;8.68;4.85;;;3.70;1.00;;;;;;5132106;28;20426;-61
2023/12/19 11:40:49;;;;;;;8.27;5.50;;;3.60;1.00;;;;;;5130316;28;20422;-62
2023/12/19 11:43:49;;;;;;;9.00;5.07;;;3.50;1.00;;;;;;5131269;28;20751;-61
2023/12/19 11:46:18;;;;;;;7.32;4.20;;;3.30;1.00;;;;;;5132114;28;20421;-61
2023/12/19 11:48:49;;;;;;;7.03;3.60;;;3.40;4.70;;;;;;5131013;28;20506;-60
2023/12/19 11:51:50;;;;;;;7.55;4.60;;;3.50;13.30;;;;;;5129910;28;20493;-61
2023/12/19 11:54:17;;;;;;;6.53;4.10;;;3.80;10.70;;;;;;5135474;27;20426;-64
2023/12/19 11:56:45;;;;;;;8.10;4.45;;;3.90;1.00;;;;;;5135816;27;21023;-65
2023/12/19 11:59:13;;;;;;;6.10;3.40;;;4.00;1.00;;;;;;5134967;27;20483;-64
2023/12/19 12:01:41;;;;;;;7.68;3.63;;;4.10;1.00;;;;;;5135050;27;20440;-64
2023/12/19 12:04:10;;;;;;;5.97;3.47;;;4.20;1.00;;;;;;5135482;27;20901;-64
2023/12/19 12:06:41;;;;;;;5.43;3.80;;;4.20;1.00;;;;;;5135018;27;20449;-65
2023/12/19 12:09:08;;;;;;;5.82;4.00;;;4.30;1.00;;;;;;5137336;27;21047;-64
2023/12/19 12:11:51;;;;;;;6.18;3.20;;;4.20;1.00;;;;;;5136443;27;20421;-65
2023/12/19 12:14:18;;;;;;;10.40;4.20;;;4.30;1.00;;;;;;5137404;27;20456;-65
2023/12/19 12:16:45;;;;;;;5.83;3.57;;;4.40;1.00;;;;;;5137048;27;20422;-65
2023/12/19 12:19:13;;;;;;;8.17;3.30;;;4.30;1.00;;;;;;5138694;27;20418;-65
2023/12/19 12:21:46;;;;;;;5.15;3.33;;;4.30;1.00;;;;;;5136128;27;20653;-66
2023/12/19 12:24:20;;;;;;;5.00;3.10;;;4.50;1.00;;;;;;5134027;27;20407;-60
2023/12/19 12:26:49;;;;;;;7.53;3.42;;;4.50;1.00;;;;;;5132754;27;20407;-60
2023/12/19 12:29:17;;;;;;;5.70;3.78;;;4.50;1.00;;;;;;5135610;27;20849;-57
2023/12/19 12:31:46;;;;;;;7.35;3.80;;;4.60;1.00;;;;;;5134291;27;20411;-56
2023/12/19 12:34:14;;;;;;;6.28;3.53;;;4.60;1.00;;;;;;5135917;27;20477;-58
2023/12/19 12:36:43;;;;;;;6.63;3.40;;;4.70;1.00;;;;;;5135086;27;20422;-57
2023/12/19 12:39:11;;;;;;;5.45;3.30;;;4.50;1.00;;;;;;5123882;27;20477;-58
2023/12/19 12:41:39;;;;;;;6.25;3.30;;;4.60;1.00;;;;;;5113827;28;20476;-56
2023/12/19 12:44:12;;;;;;;5.45;3.58;;;4.60;1.00;;;;;;5115510;28;20424;-56
2023/12/19 12:46:44;;;;;;;6.00;3.57;;;4.30;1.00;;;;;;5132857;27;20437;-57
2023/12/19 12:49:11;;;;;;;11.07;5.47;;;4.20;1.00;;;;;;5133614;27;20425;-57
2023/12/19 12:51:39;;;;;;;9.52;4.68;;;4.10;1.00;;;;;;5133006;27;20472;-57
2023/12/19 12:54:06;;;;;;;7.13;4.97;;;4.10;1.00;;;;;;5133996;27;20835;-57
2023/12/19 12:56:36;;;;;;;8.75;3.85;;;4.00;1.00;;;;;;5135996;27;20807;-57
2023/12/19 12:59:06;;;;;;;8.27;4.50;;;4.20;1.00;;;;;;5134688;27;20422;-55
2023/12/19 13:01:34;;;;;;;7.60;4.78;;;4.20;1.00;;;;;;5134608;27;20793;-55
2023/12/19 13:04:02;;;;;;;5.63;3.03;;;4.30;1.00;;;;;;5134380;27;20467;-56
2023/12/19 13:06:30;;;;;;;7.03;3.67;;;4.20;1.00;;;;;;5134249;27;20928;-56